Alakanuk, AK

4:06 AM AKDT on September 21, 2014 (GMT -0800)
Emmonak | Change Station
CLOSE
Current Station
Airport
Location: Emmonak,
Elevation: 13 ft
Nearby Weather Stations

Elev 13 ft 62.79 °N, 164.49 °W | Updated 10 minutes ago

Overcast
Overcast
37 °F
Feels Like 33 °F
N
6
Wind Variable Wind from North

Today
High -- | Low -- °F
--% Chance of Precip.
Yesterday
High -- | Low -- °F
Precip. -- in
8:39 AM 9:01 PM
Waning Crescent, 7% visible
Pressure 29.91 in
Visibility 10.0 miles
Clouds Overcast 3200 ft
Windchill 33 °F
Dew Point 30 °F
Humidity 75%
Rainfall 0.00 in
Snow Depth 6 in , 150 in , 0 in
UV 0 out of 12
Pollen Not available.
Air Quality Not available.
Flu Activity Not available.
METAR PAEM 211156Z AUTO 35005KT 10SM OVC032 03/M01 A2991 RMK AO1 10040 20020 52007

More Conditions Fewer Conditions

Pressure 29.91 in
Visibility 10.0 miles
Clouds Overcast 3200 ft
Windchill 33 °F
Dew Point 30 °F
Humidity 75%
Rainfall 0.00 in
Snow Depth 6 in , 150 in , 0 in
UV 0 out of 12
Pollen Not available.
Air Quality Not available.
Flu Activity Not available.
METAR PAEM 211156Z AUTO 35005KT 10SM OVC032 03/M01 A2991 RMK AO1 10040 20020 52007

More Conditions Fewer Conditions

10-Day Weather Forecast

Almanac

Astronomy

Sep. 21, 2014 Rise Set
Actual Time 8:39 AM AKDT 9:01 PM AKDT
Civil Twilight 7:54 AM AKDT 9:46 PM AKDT
Nautical Twilight 6:58 AM AKDT 10:41 PM AKDT
Astronomical Twilight 5:55 AM AKDT 11:43 PM AKDT
Moon 5:52 AM AKDT 8:06 PM AKDT
Length of Visible Light 13h 52m
Length of Day
12h 21m
Tomorrow will be 6m 2s shorter.
Waning Crescent, 7% of the Moon is Illuminated
Today
Waning Crescent
Sep 24
New
Oct 1
First Quarter
Oct 8
Full
Oct 15
Last Quarter

Today's Extremes

State Highs State Lows

Community

WunderPhotos

Upload Photos

1,755,126 photos uploaded!

Nearby

Snow Depth

Station Depth Elevation
Rocky Point 6 in 500 ft
Nuka Glacier 150 in 1250 ft
Eagle Summit 0 in 3650 ft
Coldfoot 1 in 1040 ft
Gobblers Knob 0 in 2030 ft

Earthquake Activity

City Distance Mag. Time & Date
No recent earthquake activity has been reported nearby.
Minimum magnitude displayed is 2.5.

Coastal Water Temperatures

Place Temperature
No Stations Reporting

Nearby Weather Stations